Time;durP1;ratioP1;P1;durP2;ratioP2;P2;SDS_P1;SDS_P2;PMS_P1;PMS_P2;Temp;Humidity;BMP_temperature;BMP_pressure;BME280_temperature;BME280_humidity;BME280_pressure;Samples;Min_cycle;Max_cycle;Signal;HPM_P1;HPM_P2
2022/04/20 00:02:18;;;;;;;8.63;4.00;;;;;;;4.78;90.56;99754.53;4196668;28;20241;-69
2022/04/20 00:04:44;;;;;;;8.37;4.60;;;;;;;4.68;91.90;99750.13;4197242;28;20253;-69
2022/04/20 00:07:11;;;;;;;10.37;4.50;;;;;;;4.70;92.05;99751.66;4204351;28;22895;-68
2022/04/20 00:09:37;;;;;;;8.27;4.40;;;;;;;4.63;92.77;99751.31;4194192;28;20251;-68
2022/04/20 00:12:04;;;;;;;8.13;5.13;;;;;;;4.70;92.99;99750.81;4191569;28;20335;-69
2022/04/20 00:14:31;;;;;;;6.67;4.40;;;;;;;4.68;92.70;99750.13;4197378;28;21157;-67
2022/04/20 00:16:58;;;;;;;7.63;4.40;;;;;;;4.73;93.19;99745.28;4192856;28;25265;-67
2022/04/20 00:19:24;;;;;;;7.97;4.50;;;;;;;4.76;92.88;99739.78;4194307;28;20301;-68
2022/04/20 00:21:52;;;;;;;7.87;4.63;;;;;;;4.82;91.93;99739.28;4183240;28;20653;-67
2022/04/20 00:24:19;;;;;;;7.73;4.53;;;;;;;4.81;92.33;99732.34;4186470;28;20311;-68
2022/04/20 00:26:45;;;;;;;7.50;4.57;;;;;;;4.81;92.09;99730.53;4193313;28;21312;-69
2022/04/20 00:29:12;;;;;;;8.13;4.87;;;;;;;4.86;91.90;99732.81;4172479;28;21695;-68
2022/04/20 00:31:38;;;;;;;8.57;4.90;;;;;;;4.82;92.56;99737.50;4175257;28;21796;-67
2022/04/20 00:34:05;;;;;;;9.70;5.37;;;;;;;4.74;93.14;99728.53;4193378;28;25190;-67
2022/04/20 00:36:31;;;;;;;8.07;4.70;;;;;;;4.80;92.75;99728.03;4186535;28;20354;-67
2022/04/20 00:38:58;;;;;;;7.77;4.40;;;;;;;4.73;93.63;99727.72;4179439;28;20294;-68
2022/04/20 00:41:25;;;;;;;11.17;5.27;;;;;;;4.77;94.00;99723.84;4183918;28;21375;-68
2022/04/20 00:43:53;;;;;;;8.37;5.10;;;;;;;4.71;94.78;99713.81;4181020;28;20387;-68
2022/04/20 00:46:19;;;;;;;7.63;5.37;;;;;;;4.67;94.95;99714.19;4176360;28;20229;-68
2022/04/20 00:48:47;;;;;;;8.60;5.70;;;;;;;4.68;94.88;99715.84;4176784;28;21084;-68
2022/04/20 00:51:14;;;;;;;12.97;7.77;;;;;;;4.72;95.31;99710.22;4195905;28;21492;-68
2022/04/20 00:53:40;;;;;;;13.90;7.80;;;;;;;4.75;95.32;99714.38;4194405;28;20242;-68
2022/04/20 00:56:06;;;;;;;11.57;6.70;;;;;;;4.74;95.72;99708.28;4188376;28;20279;-67
2022/04/20 00:58:35;;;;;;;10.77;6.03;;;;;;;4.76;96.11;99705.53;4175803;28;24801;-67
2022/04/20 01:01:01;;;;;;;12.20;5.63;;;;;;;4.87;95.12;99708.13;4183629;28;21670;-67
2022/04/20 01:03:28;;;;;;;13.60;5.63;;;;;;;4.93;95.04;99701.50;4187413;28;20217;-67
2022/04/20 01:05:58;;;;;;;9.87;5.80;;;;;;;4.99;94.76;99696.56;4179544;28;20241;-68
2022/04/20 01:08:24;;;;;;;10.90;5.97;;;;;;;4.84;95.29;99690.75;4184981;28;20672;-67
2022/04/20 01:10:50;;;;;;;8.17;5.70;;;;;;;4.70;96.24;99687.56;4179752;28;22705;-68
2022/04/20 01:13:17;;;;;;;12.83;6.70;;;;;;;4.69;96.31;99673.56;4187680;28;20236;-69
2022/04/20 01:15:44;;;;;;;10.13;6.10;;;;;;;4.70;97.22;99671.75;4178343;28;20233;-67
2022/04/20 01:18:14;;;;;;;12.23;7.07;;;;;;;4.77;96.96;99675.56;4175988;28;20274;-68
2022/04/20 01:20:41;;;;;;;12.90;7.07;;;;;;;4.81;96.41;99671.72;4177061;28;20234;-67
2022/04/20 01:23:08;;;;;;;12.40;7.20;;;;;;;4.74;96.49;99676.66;4181645;28;20280;-68
2022/04/20 01:25:34;;;;;;;9.53;6.90;;;;;;;4.73;97.23;99674.13;4177576;28;20304;-67
2022/04/20 01:28:01;;;;;;;10.63;7.23;;;;;;;4.67;97.52;99674.66;4174500;28;20240;-66
2022/04/20 01:30:28;;;;;;;13.50;7.47;;;;;;;4.63;98.24;99672.25;4183820;28;22278;-68
2022/04/20 01:32:56;;;;;;;10.43;7.37;;;;;;;4.64;98.44;99660.78;4173580;28;20225;-69
2022/04/20 01:35:23;;;;;;;15.33;7.80;;;;;;;4.64;98.03;99660.78;4168695;28;20234;-67
2022/04/20 01:37:50;;;;;;;11.10;7.40;;;;;;;4.70;98.39;99653.31;4170549;28;20962;-69
2022/04/20 01:40:16;;;;;;;11.47;7.80;;;;;;;4.62;98.72;99641.63;4170882;28;22375;-68
2022/04/20 01:42:43;;;;;;;14.03;8.03;;;;;;;4.69;98.79;99649.03;4185588;28;24034;-67
2022/04/20 01:45:10;;;;;;;11.83;7.63;;;;;;;4.68;98.50;99636.78;4189495;28;20226;-66
2022/04/20 01:47:37;;;;;;;12.57;7.47;;;;;;;4.58;99.08;99639.34;4178372;28;20312;-68
2022/04/20 01:50:05;;;;;;;12.67;8.17;;;;;;;4.63;99.18;99640.63;4179988;28;20232;-68
2022/04/20 01:52:32;;;;;;;12.83;7.80;;;;;;;4.70;98.72;99626.97;4171096;28;21878;-67
2022/04/20 01:54:58;;;;;;;14.37;7.60;;;;;;;4.61;98.56;99629.41;4192367;28;22253;-67
2022/04/20 01:57:25;;;;;;;11.20;7.70;;;;;;;4.61;99.07;99626.78;4189351;28;20250;-68
2022/04/20 01:59:51;;;;;;;10.50;7.13;;;;;;;4.58;99.62;99624.38;4192136;28;21872;-67
2022/04/20 02:05:11;;;;;;;12.47;7.73;;;;;;;4.60;100.00;99613.72;4200203;28;20241;-68
2022/04/20 02:07:38;;;;;;;11.00;7.83;;;;;;;4.58;100.00;99613.00;4191305;28;20231;-68
2022/04/20 02:10:05;;;;;;;14.70;8.33;;;;;;;4.58;100.00;99611.19;4182496;28;20279;-68
2022/04/20 02:12:32;;;;;;;14.23;8.00;;;;;;;4.50;100.00;99615.47;4185867;28;21427;-68
2022/04/20 02:14:58;;;;;;;15.27;8.83;;;;;;;4.30;100.00;99599.47;4193508;28;20287;-67
2022/04/20 02:17:25;;;;;;;14.37;9.47;;;;;;;4.35;100.00;99596.47;4190447;28;20351;-70
2022/04/20 02:19:57;;;;;;;15.90;9.57;;;;;;;4.26;100.00;99597.22;4184847;28;20231;-68
2022/04/20 02:22:23;;;;;;;13.93;9.10;;;;;;;4.32;100.00;99596.72;4201086;28;20233;-66
2022/04/20 02:24:50;;;;;;;15.73;9.67;;;;;;;4.38;100.00;99591.78;4191198;28;22530;-67
2022/04/20 02:27:17;;;;;;;14.87;9.50;;;;;;;4.34;100.00;99594.81;4199541;28;20335;-67
2022/04/20 02:29:43;;;;;;;15.03;9.70;;;;;;;4.36;100.00;99587.59;4185158;28;21770;-68
2022/04/20 02:32:10;;;;;;;15.53;10.87;;;;;;;4.38;100.00;99590.97;4179209;28;20330;-67
2022/04/20 02:34:36;;;;;;;20.40;11.40;;;;;;;4.31;100.00;99580.09;4182800;28;20234;-66
2022/04/20 02:37:04;;;;;;;15.53;10.37;;;;;;;4.29;100.00;99583.81;4186247;28;20315;-69
2022/04/20 02:39:32;;;;;;;18.33;10.30;;;;;;;4.20;100.00;99567.78;4193827;28;23416;-68
2022/04/20 02:41:58;;;;;;;18.03;10.63;;;;;;;4.26;100.00;99568.25;4189620;28;20390;-68
2022/04/20 02:44:25;;;;;;;18.77;11.87;;;;;;;4.28;100.00;99568.94;4191190;28;20347;-68
2022/04/20 02:46:51;;;;;;;19.33;11.50;;;;;;;4.27;100.00;99567.28;4190416;28;20240;-68
2022/04/20 02:49:18;;;;;;;17.93;11.30;;;;;;;4.29;100.00;99565.38;4192813;28;20252;-68
2022/04/20 02:51:44;;;;;;;19.50;12.40;;;;;;;4.29;100.00;99560.09;4192649;28;20240;-71
2022/04/20 02:54:11;;;;;;;20.97;12.43;;;;;;;4.23;100.00;99561.44;4193293;28;20237;-68
2022/04/20 02:56:37;;;;;;;20.30;12.80;;;;;;;4.26;100.00;99565.59;4196675;28;23172;-68
2022/04/20 02:59:04;;;;;;;18.60;12.83;;;;;;;4.18;100.00;99561.81;4196970;28;20297;-68
2022/04/20 03:01:30;;;;;;;20.00;11.50;;;;;;;4.27;100.00;99557.59;4194559;28;21569;-67
2022/04/20 03:03:58;;;;;;;16.40;11.20;;;;;;;4.29;100.00;99558.31;4201155;28;20241;-68
2022/04/20 03:06:27;;;;;;;18.13;12.00;;;;;;;4.30;100.00;99551.22;4180079;28;20314;-69
2022/04/20 03:08:54;;;;;;;17.90;11.63;;;;;;;4.23;100.00;99550.91;4181655;28;25430;-67
2022/04/20 03:11:21;;;;;;;21.63;13.00;;;;;;;4.32;100.00;99549.31;4191782;28;20299;-67
2022/04/20 03:13:48;;;;;;;18.37;11.70;;;;;;;4.35;100.00;99547.25;4184719;28;20237;-68
2022/04/20 03:16:15;;;;;;;17.00;11.07;;;;;;;4.32;100.00;99544.88;4180343;28;20233;-68
2022/04/20 03:18:42;;;;;;;17.00;12.17;;;;;;;4.26;100.00;99544.53;4185813;28;20462;-67
2022/04/20 03:21:08;;;;;;;16.83;11.77;;;;;;;4.29;100.00;99539.88;4198493;28;20336;-69
2022/04/20 03:23:35;;;;;;;19.03;11.80;;;;;;;4.30;100.00;99540.69;4183926;28;20253;-68
2022/04/20 03:26:03;;;;;;;17.60;11.67;;;;;;;4.29;100.00;99536.41;4186656;28;21686;-68
2022/04/20 03:28:30;;;;;;;15.57;11.30;;;;;;;4.35;100.00;99534.06;4189620;28;22506;-67
2022/04/20 03:30:57;;;;;;;17.17;11.57;;;;;;;4.27;100.00;99533.06;4194938;28;20308;-68
2022/04/20 03:33:23;;;;;;;18.07;11.90;;;;;;;4.32;100.00;99533.50;4188410;28;21659;-68
2022/04/20 03:35:50;;;;;;;16.90;11.90;;;;;;;4.33;100.00;99530.75;4197065;28;20572;-68
2022/04/20 03:38:17;;;;;;;17.90;11.47;;;;;;;4.43;100.00;99520.28;4190869;28;20226;-69
2022/04/20 03:40:45;;;;;;;18.30;11.73;;;;;;;4.45;100.00;99523.63;4188474;28;21629;-69
2022/04/20 03:43:11;;;;;;;17.67;11.37;;;;;;;4.40;100.00;99515.25;4187682;28;22473;-70
2022/04/20 03:45:38;;;;;;;15.83;11.17;;;;;;;4.42;100.00;99521.22;4177919;28;21878;-67
2022/04/20 03:48:05;;;;;;;18.07;11.27;;;;;;;4.42;100.00;99513.34;4199995;28;21539;-67
2022/04/20 03:50:32;;;;;;;16.73;11.10;;;;;;;4.43;100.00;99507.94;4184482;28;20304;-66
2022/04/20 03:52:59;;;;;;;16.03;11.03;;;;;;;4.31;100.00;99510.75;4199888;28;20232;-69
2022/04/20 03:55:26;;;;;;;15.07;10.27;;;;;;;4.39;100.00;99503.88;4198041;28;20232;-68
2022/04/20 03:57:52;;;;;;;16.70;10.80;;;;;;;4.50;100.00;99505.63;4193452;28;25640;-69
2022/04/20 04:00:20;;;;;;;16.40;10.43;;;;;;;4.38;100.00;99506.66;4197500;28;20233;-68
2022/04/20 04:02:47;;;;;;;16.40;10.10;;;;;;;4.44;100.00;99506.97;4189776;28;20236;-69
2022/04/20 04:05:13;;;;;;;14.47;10.40;;;;;;;4.53;100.00;99505.38;4193424;28;21405;-68
2022/04/20 04:07:41;;;;;;;15.53;10.63;;;;;;;4.65;100.00;99498.22;4187814;28;21790;-70
2022/04/20 04:10:08;;;;;;;13.47;9.60;;;;;;;4.68;100.00;99497.13;4185953;28;20247;-69
2022/04/20 04:12:35;;;;;;;15.30;9.40;;;;;;;4.76;100.00;99492.06;4192986;28;21658;-67
2022/04/20 04:15:02;;;;;;;14.27;9.70;;;;;;;4.80;100.00;99501.34;4197458;28;20512;-68
2022/04/20 04:17:29;;;;;;;13.00;9.60;;;;;;;4.82;100.00;99504.69;4194201;28;20233;-67
2022/04/20 04:19:57;;;;;;;11.30;8.23;;;;;;;4.88;100.00;99498.91;4211069;28;21304;-64
2022/04/20 04:22:23;;;;;;;11.27;7.83;;;;;;;4.91;100.00;99492.53;4181107;28;20299;-65
2022/04/20 04:24:50;;;;;;;14.50;8.87;;;;;;;4.88;100.00;99493.63;4207861;28;20237;-66
2022/04/20 04:27:17;;;;;;;11.30;8.40;;;;;;;4.98;100.00;99496.31;4205356;28;20331;-59
2022/04/20 04:29:43;;;;;;;10.77;7.60;;;;;;;5.02;100.00;99492.44;4214422;28;20240;-64
2022/04/20 04:32:12;;;;;;;12.50;8.43;;;;;;;4.99;100.00;99490.91;4224402;28;21974;-65
2022/04/20 04:34:39;;;;;;;11.27;8.43;;;;;;;4.89;100.00;99497.94;4202781;28;23349;-64
2022/04/20 04:37:08;;;;;;;10.70;7.60;;;;;;;5.05;100.00;99489.53;4206071;28;20233;-70
2022/04/20 04:39:35;;;;;;;10.87;7.30;;;;;;;5.00;100.00;99487.28;4207739;28;20480;-67
2022/04/20 04:42:02;;;;;;;10.23;7.43;;;;;;;5.02;100.00;99489.81;4211183;28;25500;-69
2022/04/20 04:44:32;;;;;;;8.90;6.83;;;;;;;5.05;100.00;99485.09;4211601;28;20560;-65
2022/04/20 04:49:44;;;;;;;10.77;6.83;;;;;;;5.15;100.00;99486.94;4202520;28;20244;-67
2022/04/20 04:52:11;;;;;;;9.63;6.70;;;;;;;5.17;100.00;99493.72;4233842;28;20240;-65
2022/04/20 04:54:39;;;;;;;9.10;6.77;;;;;;;5.06;100.00;99486.78;4220664;28;21782;-64
2022/04/20 04:57:07;;;;;;;9.23;6.80;;;;;;;5.17;100.00;99487.63;4194378;28;20340;-66
2022/04/20 04:59:40;;;;;;;10.50;7.20;;;;;;;5.28;100.00;99487.53;4207672;28;20213;-64
2022/04/20 05:02:08;;;;;;;9.30;6.53;;;;;;;5.26;100.00;99482.38;4204009;28;21304;-62
2022/04/20 05:04:39;;;;;;;11.93;6.93;;;;;;;5.17;100.00;99483.19;4192192;28;20338;-65
2022/04/20 05:07:06;;;;;;;9.57;6.73;;;;;;;5.22;100.00;99478.38;4195313;28;25691;-64
2022/04/20 05:09:33;;;;;;;14.03;6.77;;;;;;;5.05;100.00;99474.53;4188908;28;20253;-64
2022/04/20 05:12:01;;;;;;;11.17;7.23;;;;;;;5.16;100.00;99475.44;4199311;28;20348;-64
2022/04/20 05:14:28;;;;;;;12.13;8.27;;;;;;;5.16;100.00;99475.44;4204236;28;20297;-64
2022/04/20 05:16:56;;;;;;;12.40;7.20;;;;;;;5.27;100.00;99472.69;4210370;28;20233;-63
2022/04/20 05:19:23;;;;;;;10.70;7.27;;;;;;;5.26;100.00;99471.00;4200162;28;20276;-63
2022/04/20 05:21:49;;;;;;;11.30;7.23;;;;;;;5.23;100.00;99460.72;4194862;28;25634;-68
2022/04/20 05:24:16;;;;;;;10.73;6.90;;;;;;;5.24;100.00;99455.34;4195370;28;20228;-70
2022/04/20 05:26:43;;;;;;;12.93;7.73;;;;;;;5.28;100.00;99459.34;4213533;28;21560;-67
2022/04/20 05:29:11;;;;;;;9.67;7.30;;;;;;;5.28;100.00;99458.53;4186218;28;21266;-66
2022/04/20 05:31:38;;;;;;;9.23;6.67;;;;;;;5.29;100.00;99462.81;4207494;28;22288;-68
2022/04/20 05:34:04;;;;;;;9.70;6.80;;;;;;;5.39;100.00;99453.13;4186246;28;20235;-67
2022/04/20 05:41:39;;;;;;;8.77;6.53;;;;;;;5.30;100.00;99464.50;4186451;28;20288;-64
2022/04/20 05:42:03;;;;;;;12.67;6.73;;;;;;;5.40;100.00;99453.97;4202663;28;20241;-66
2022/04/20 05:44:30;;;;;;;9.40;6.43;;;;;;;5.26;100.00;99456.00;4203876;28;21979;-69
2022/04/20 05:46:57;;;;;;;10.70;7.33;;;;;;;5.32;100.00;99454.66;4210338;28;20360;-67
2022/04/20 05:49:24;;;;;;;13.70;6.80;;;;;;;5.34;100.00;99460.63;4189953;28;21006;-67
2022/04/20 05:51:51;;;;;;;8.77;6.40;;;;;;;5.28;100.00;99461.16;4195800;28;20509;-68
2022/04/20 05:54:17;;;;;;;10.97;6.87;;;;;;;5.42;100.00;99460.75;4183579;28;20693;-68
2022/04/20 05:56:44;;;;;;;10.17;7.00;;;;;;;5.29;100.00;99458.41;4190156;28;20254;-67
2022/04/20 05:59:10;;;;;;;9.97;6.27;;;;;;;5.37;100.00;99459.53;4185319;28;20299;-68
2022/04/20 06:01:37;;;;;;;11.20;6.37;;;;;;;5.39;100.00;99454.94;4206966;28;20230;-67
2022/04/20 06:04:04;;;;;;;11.07;6.30;;;;;;;5.44;100.00;99452.72;4208255;28;21277;-67
2022/04/20 06:06:31;;;;;;;10.40;6.03;;;;;;;5.44;100.00;99448.28;4213793;28;21149;-69
2022/04/20 06:08:58;;;;;;;14.40;6.93;;;;;;;5.43;100.00;99446.63;4203905;28;26104;-67
2022/04/20 06:11:26;;;;;;;10.70;6.63;;;;;;;5.47;100.00;99442.72;4199159;28;20267;-67
2022/04/20 06:13:53;;;;;;;10.83;6.00;;;;;;;5.44;100.00;99448.28;4193846;28;20940;-68
2022/04/20 06:16:19;;;;;;;10.27;6.57;;;;;;;5.47;100.00;99448.00;4198972;28;20229;-67
2022/04/20 06:18:46;;;;;;;12.17;5.67;;;;;;;5.46;100.00;99450.78;4193232;28;20237;-67
2022/04/20 06:21:13;;;;;;;11.17;6.23;;;;;;;5.51;100.00;99453.84;4194192;28;20225;-67
2022/04/20 06:23:39;;;;;;;10.70;5.80;;;;;;;5.55;100.00;99451.75;4208613;28;20332;-67
2022/04/20 06:26:06;;;;;;;10.00;6.10;;;;;;;5.46;100.00;99451.63;4216209;28;20241;-68
2022/04/20 06:28:32;;;;;;;10.43;6.20;;;;;;;5.60;100.00;99457.47;4172118;28;20447;-67
2022/04/20 06:30:59;;;;;;;8.83;5.27;;;;;;;5.60;100.00;99446.91;4185098;28;20237;-69
2022/04/20 06:33:26;;;;;;;8.97;5.43;;;;;;;5.62;100.00;99448.44;4206001;28;21256;-67
2022/04/20 06:35:53;;;;;;;11.30;6.00;;;;;;;5.63;100.00;99447.47;4196545;28;20446;-67
2022/04/20 06:38:21;;;;;;;11.40;6.23;;;;;;;5.56;100.00;99437.59;4203216;28;20429;-67
2022/04/20 06:40:48;;;;;;;10.27;5.50;;;;;;;5.59;100.00;99430.22;4201940;28;20248;-67
2022/04/20 06:43:14;;;;;;;9.37;4.53;;;;;;;5.64;100.00;99427.19;4188588;28;22981;-67
2022/04/20 06:45:41;;;;;;;11.37;5.47;;;;;;;5.71;100.00;99433.56;4187289;28;20334;-67
2022/04/20 06:48:08;;;;;;;8.23;5.27;;;;;;;5.69;100.00;99427.63;4184297;28;20239;-67
2022/04/20 06:50:34;;;;;;;9.57;5.53;;;;;;;5.83;100.00;99432.47;4209900;28;20810;-68
2022/04/20 06:58:32;;;;;;;10.37;5.67;;;;;;;5.74;100.00;99428.03;4204642;28;20334;-68
2022/04/20 07:00:59;;;;;;;8.90;5.53;;;;;;;5.78;100.00;99424.13;4194089;28;20244;-67
2022/04/20 07:03:26;;;;;;;9.20;5.63;;;;;;;5.77;100.00;99422.47;4195591;28;20684;-67
2022/04/20 07:05:53;;;;;;;9.23;5.30;;;;;;;5.90;100.00;99417.75;4198389;28;20272;-66
2022/04/20 07:08:20;;;;;;;10.00;5.53;;;;;;;5.96;100.00;99418.19;4183916;28;20257;-66
2022/04/20 07:10:47;;;;;;;10.23;5.43;;;;;;;6.06;100.00;99422.50;4195986;28;20752;-70
2022/04/20 07:13:16;;;;;;;10.73;5.67;;;;;;;6.07;100.00;99412.75;4200892;28;22837;-68
2022/04/20 07:15:42;;;;;;;8.40;4.80;;;;;;;6.01;100.00;99415.94;4191505;28;20311;-67
2022/04/20 07:18:09;;;;;;;9.77;5.20;;;;;;;5.96;100.00;99410.25;4200056;28;25186;-66
2022/04/20 07:20:36;;;;;;;12.17;5.60;;;;;;;5.96;100.00;99419.00;4196597;28;20228;-67
2022/04/20 07:23:03;;;;;;;8.57;5.27;;;;;;;6.05;100.00;99414.69;4202196;28;20287;-68
2022/04/20 07:25:31;;;;;;;7.53;5.00;;;;;;;6.17;100.00;99416.19;4197420;28;22614;-68
2022/04/20 07:27:57;;;;;;;9.70;5.10;;;;;;;6.18;100.00;99412.59;4211456;28;20232;-67
2022/04/20 07:30:24;;;;;;;9.33;5.03;;;;;;;6.29;100.00;99409.78;4202432;28;22222;-67
2022/04/20 07:32:51;;;;;;;8.87;4.67;;;;;;;6.37;100.00;99414.38;4207199;28;20229;-66
2022/04/20 07:35:17;;;;;;;7.47;5.00;;;;;;;6.38;100.00;99394.88;4201798;28;22180;-67
2022/04/20 07:37:44;;;;;;;9.97;5.10;;;;;;;6.40;100.00;99392.94;4215114;28;20248;-69
2022/04/20 07:40:12;;;;;;;8.83;5.03;;;;;;;6.42;100.00;99390.16;4185659;28;20351;-67
2022/04/20 07:42:39;;;;;;;8.30;4.70;;;;;;;6.42;100.00;99380.41;4212955;28;20391;-66
2022/04/20 07:45:07;;;;;;;9.07;4.63;;;;;;;6.36;100.00;99380.16;4189999;28;20227;-66
2022/04/20 07:47:33;;;;;;;7.47;4.40;;;;;;;6.36;100.00;99377.50;4209748;28;20273;-68
2022/04/20 07:50:18;;;;;;;9.03;4.50;;;;;;;6.28;100.00;99380.88;4205695;28;20232;-68
2022/04/20 07:52:48;;;;;;;8.03;4.73;;;;;;;6.24;100.00;99375.03;4189074;28;20338;-68
2022/04/20 07:55:17;;;;;;;7.70;4.67;;;;;;;6.33;100.00;99373.34;4205151;28;20308;-68
2022/04/20 07:57:45;;;;;;;8.23;4.87;;;;;;;6.48;100.00;99379.00;4199986;28;21793;-68
2022/04/20 08:00:14;;;;;;;9.77;5.60;;;;;;;6.56;100.00;99384.41;4192344;28;20240;-68
2022/04/20 08:02:41;;;;;;;8.97;5.67;;;;;;;6.57;100.00;99387.88;4202239;28;21052;-66
2022/04/20 08:05:09;;;;;;;9.60;5.40;;;;;;;6.56;100.00;99387.03;4199582;28;20237;-67
2022/04/20 08:07:36;;;;;;;8.20;4.53;;;;;;;6.58;100.00;99395.66;4201567;28;20294;-68
2022/04/20 08:10:04;;;;;;;7.30;4.73;;;;;;;6.49;100.00;99396.53;4196959;28;23581;-67
2022/04/20 08:12:37;;;;;;;8.37;4.50;;;;;;;6.63;100.00;99403.97;4189295;28;22967;-68
2022/04/20 08:15:07;;;;;;;7.03;4.13;;;;;;;6.74;100.00;99397.66;4196588;28;21341;-69
2022/04/20 08:17:34;;;;;;;6.20;4.20;;;;;;;6.71;100.00;99401.44;4198275;28;20241;-69
2022/04/20 08:20:02;;;;;;;5.90;3.70;;;;;;;6.88;100.00;99404.28;4197372;28;21738;-68
2022/04/20 08:22:32;;;;;;;5.07;3.03;;;;;;;6.76;100.00;99403.63;4203214;28;20237;-67
2022/04/20 08:25:02;;;;;;;5.17;3.30;;;;;;;6.91;100.00;99404.84;4193563;28;20237;-68
2022/04/20 08:27:30;;;;;;;4.70;3.17;;;;;;;6.96;100.00;99404.41;4199935;28;20259;-68
2022/04/20 08:29:57;;;;;;;6.57;3.90;;;;;;;7.17;100.00;99397.03;4199634;28;20229;-69
2022/04/20 08:32:29;;;;;;;7.27;4.33;;;;;;;7.01;100.00;99385.44;4190184;28;20294;-69
2022/04/20 08:34:56;;;;;;;6.33;4.10;;;;;;;7.00;100.00;99383.75;4195404;28;20669;-67
2022/04/20 08:37:27;;;;;;;7.40;4.30;;;;;;;7.10;100.00;99385.38;4211963;28;24789;-67
2022/04/20 08:39:54;;;;;;;9.37;4.27;;;;;;;7.10;100.00;99377.44;4184243;28;21030;-66
2022/04/20 08:42:21;;;;;;;9.87;4.50;;;;;;;7.06;100.00;99384.00;4189111;28;25630;-72
2022/04/20 08:44:51;;;;;;;6.87;4.17;;;;;;;7.14;100.00;99386.75;4199855;28;20352;-67
2022/04/20 08:47:23;;;;;;;9.53;4.57;;;;;;;7.26;100.00;99389.16;4194975;28;20279;-67
2022/04/20 08:49:50;;;;;;;8.53;4.30;;;;;;;7.19;100.00;99389.78;4185145;28;20332;-68
2022/04/20 08:52:37;;;;;;;7.70;4.33;;;;;;;7.28;100.00;99382.75;4207033;28;20239;-67
2022/04/20 08:55:11;;;;;;;7.27;4.70;;;;;;;7.22;100.00;99388.66;4201789;28;20295;-68
2022/04/20 08:57:39;;;;;;;7.67;4.07;;;;;;;7.26;100.00;99394.44;4178948;28;24854;-67
2022/04/20 09:00:09;;;;;;;8.60;4.60;;;;;;;7.29;100.00;99396.81;4196046;28;25006;-67
2022/04/20 09:02:36;;;;;;;8.40;4.13;;;;;;;7.43;100.00;99388.34;4198967;28;20233;-66
2022/04/20 09:05:04;;;;;;;7.60;4.20;;;;;;;7.57;100.00;99393.13;4194688;28;20680;-67
2022/04/20 09:07:32;;;;;;;6.97;4.77;;;;;;;7.61;100.00;99394.50;4206267;28;20327;-67
2022/04/20 09:10:00;;;;;;;9.10;4.47;;;;;;;7.65;99.38;99402.13;4205601;28;25580;-67
2022/04/20 09:12:28;;;;;;;10.53;5.03;;;;;;;7.69;99.50;99412.25;4193959;28;20345;-68
2022/04/20 09:14:56;;;;;;;9.70;5.03;;;;;;;7.63;99.66;99418.16;4198453;28;20237;-65
2022/04/20 09:17:24;;;;;;;9.87;4.53;;;;;;;7.45;100.00;99412.88;4236489;28;20478;-65
2022/04/20 09:19:58;;;;;;;7.70;4.63;;;;;;;7.47;100.00;99413.56;4250309;28;20245;-69
2022/04/20 09:22:27;;;;;;;7.03;4.57;;;;;;;7.28;100.00;99425.09;4191340;28;20236;-68
2022/04/20 09:25:06;;;;;;;12.67;4.80;;;;;;;7.32;100.00;99428.28;4223336;28;22140;-67
2022/04/20 09:27:34;;;;;;;10.03;5.17;;;;;;;7.32;100.00;99420.31;4252335;28;21492;-67
2022/04/20 09:30:04;;;;;;;6.67;4.60;;;;;;;7.43;100.00;99414.84;4193769;28;20284;-68
2022/04/20 09:32:41;;;;;;;7.67;4.93;;;;;;;7.68;100.00;99409.75;4184275;28;20317;-67
2022/04/20 09:35:10;;;;;;;7.33;4.43;;;;;;;7.93;98.88;99410.81;4193820;28;20237;-67
2022/04/20 09:37:37;;;;;;;6.90;4.83;;;;;;;7.97;97.08;99415.66;4222774;28;20245;-70
2022/04/20 09:40:12;;;;;;;8.57;5.23;;;;;;;7.91;97.41;99416.25;4189789;28;20241;-68
2022/04/20 09:43:01;;;;;;;8.67;4.60;;;;;;;7.92;96.96;99423.22;4191118;28;20263;-68
2022/04/20 09:45:28;;;;;;;8.00;5.20;;;;;;;8.01;96.95;99424.97;4205785;28;20280;-69
2022/04/20 09:50:43;;;;;;;8.87;4.97;;;;;;;8.04;96.62;99424.66;4203810;28;21392;-68
2022/04/20 09:53:12;;;;;;;9.37;4.60;;;;;;;8.05;96.72;99425.47;4205242;28;22431;-68
2022/04/20 09:55:40;;;;;;;6.20;4.70;;;;;;;7.95;96.78;99433.50;4200438;28;20752;-68
2022/04/20 09:58:15;;;;;;;8.67;5.00;;;;;;;7.93;97.27;99439.94;4175343;28;21766;-69
2022/04/20 10:00:45;;;;;;;6.87;4.67;;;;;;;7.53;97.39;99447.34;4196870;28;20235;-68
2022/04/20 10:03:25;;;;;;;7.90;5.17;;;;;;;7.55;97.74;99444.56;4191653;28;20289;-68
2022/04/20 10:05:52;;;;;;;10.67;5.70;;;;;;;7.26;98.69;99444.72;4203873;28;20295;-67
2022/04/20 10:08:20;;;;;;;7.63;5.10;;;;;;;7.18;100.00;99441.00;4187561;28;22641;-71
2022/04/20 10:10:48;;;;;;;12.30;6.47;;;;;;;7.31;100.00;99445.97;4185465;28;20241;-67
2022/04/20 10:13:15;;;;;;;8.57;5.53;;;;;;;7.61;99.77;99452.75;4202739;28;20229;-68
2022/04/20 10:18:30;;;;;;;12.27;5.70;;;;;;;7.64;98.06;99453.44;4182503;28;20776;-67
2022/04/20 10:21:00;;;;;;;8.63;5.20;;;;;;;7.75;97.89;99448.75;4185559;28;26648;-67
2022/04/20 10:23:29;;;;;;;10.30;5.37;;;;;;;7.80;97.53;99450.94;4201773;28;20235;-67
2022/04/20 10:25:59;;;;;;;8.87;4.83;;;;;;;7.93;97.98;99451.38;4184607;28;21926;-67
2022/04/20 10:28:36;;;;;;;8.27;5.60;;;;;;;7.73;96.59;99448.06;4185375;28;20245;-67
2022/04/20 10:31:03;;;;;;;11.07;6.40;;;;;;;7.81;96.43;99452.59;4215345;28;20232;-66
2022/04/20 10:33:32;;;;;;;8.90;6.33;;;;;;;7.80;96.65;99458.88;4209491;28;20241;-67
2022/04/20 10:36:06;;;;;;;11.83;6.17;;;;;;;7.80;96.88;99466.81;4195995;28;20845;-68
2022/04/20 10:38:33;;;;;;;9.60;6.17;;;;;;;7.77;97.07;99473.25;4213771;28;23116;-68
2022/04/20 10:41:18;;;;;;;9.73;6.10;;;;;;;7.90;95.47;99464.94;4208285;28;20282;-69
2022/04/20 10:44:04;;;;;;;9.10;5.67;;;;;;;7.81;95.40;99458.72;4200399;28;20350;-66
2022/04/20 10:46:31;;;;;;;8.73;5.87;;;;;;;7.98;94.81;99458.84;4188281;28;20237;-66
2022/04/20 10:49:01;;;;;;;11.23;6.70;;;;;;;7.97;94.88;99462.50;4192518;28;20236;-68
2022/04/20 10:51:32;;;;;;;10.43;6.57;;;;;;;8.14;95.87;99468.78;4195191;28;21545;-67
2022/04/20 10:54:17;;;;;;;8.50;5.33;;;;;;;8.32;94.73;99463.44;4193501;28;20515;-66
2022/04/20 10:56:48;;;;;;;10.03;5.83;;;;;;;8.35;92.86;99465.78;4223279;28;23604;-67
2022/04/20 10:59:14;;;;;;;9.07;6.00;;;;;;;8.23;92.67;99457.25;4200316;28;20780;-67
2022/04/20 11:02:02;;;;;;;9.40;6.00;;;;;;;8.12;92.90;99460.13;4192512;28;22362;-68
2022/04/20 11:04:33;;;;;;;10.50;6.63;;;;;;;8.02;93.37;99465.53;4209956;28;21554;-69
2022/04/20 11:07:01;;;;;;;9.87;6.30;;;;;;;8.09;93.74;99463.09;4186445;28;20241;-67
2022/04/20 11:09:45;;;;;;;10.50;6.47;;;;;;;8.13;92.63;99461.81;4182250;28;20240;-67
2022/04/20 11:21:11;;;;;;;10.90;6.67;;;;;;;7.67;94.75;99461.06;4193602;28;20248;-68
2022/04/20 11:24:11;;;;;;;8.20;6.20;;;;;;;7.46;95.26;99451.56;4213206;28;22485;-68
2022/04/20 11:26:42;;;;;;;14.70;8.23;;;;;;;7.73;95.37;99463.13;4193155;28;23153;-66
2022/04/20 11:29:15;;;;;;;10.07;5.80;;;;;;;7.81;93.61;99460.53;4183967;28;20237;-67
2022/04/20 11:32:02;;;;;;;10.37;6.43;;;;;;;7.86;92.78;99471.50;4190877;28;20660;-67
2022/04/20 11:34:34;;;;;;;10.03;5.40;;;;;;;7.78;93.06;99466.16;4198526;28;20237;-67
2022/04/20 11:37:03;;;;;;;10.53;6.30;;;;;;;7.70;93.11;99466.03;4184888;28;20241;-65
2022/04/20 11:39:30;;;;;;;11.03;6.63;;;;;;;7.47;95.21;99466.50;4182272;28;21653;-67
2022/04/20 11:42:00;;;;;;;11.37;6.33;;;;;;;7.50;96.41;99468.84;4191846;28;22738;-64
2022/04/20 11:44:35;;;;;;;13.77;6.57;;;;;;;7.51;96.46;99465.19;4166733;28;22083;-66
2022/04/20 11:47:07;;;;;;;10.80;6.43;;;;;;;7.70;94.94;99463.41;4210025;28;20307;-66
2022/04/20 11:49:40;;;;;;;14.40;6.80;;;;;;;7.42;96.32;99463.44;4184956;28;20223;-67
2022/04/20 11:52:09;;;;;;;11.40;6.60;;;;;;;7.49;96.49;99459.25;4191776;28;20305;-67
2022/04/20 11:54:37;;;;;;;12.80;6.90;;;;;;;7.75;95.48;99463.78;4195676;28;20234;-68
2022/04/20 11:57:04;;;;;;;12.40;7.43;;;;;;;7.83;95.29;99459.41;4189110;28;25890;-66
2022/04/20 11:59:31;;;;;;;13.43;7.63;;;;;;;7.90;95.50;99462.28;4203737;28;20317;-67
2022/04/20 12:01:58;;;;;;;12.80;7.30;;;;;;;7.87;96.10;99459.94;4214150;28;20363;-66
2022/04/20 12:04:27;;;;;;;16.83;7.33;;;;;;;7.93;95.57;99456.66;4181003;28;22679;-69
2022/04/20 12:06:57;;;;;;;15.23;7.13;;;;;;;7.91;94.26;99458.63;4197361;28;22034;-67